sensor_id;sensor_type;location;lat;lon;timestamp;P1;durP1;ratioP1;P2;durP2;ratioP2
9178;SDS011;4624;48.126;11.546;2023-04-03T00:01:59;4.60;;;4.20;;
9178;SDS011;4624;48.126;11.546;2023-04-03T00:04:27;4.73;;;3.53;;
9178;SDS011;4624;48.126;11.546;2023-04-03T00:06:55;4.70;;;3.80;;
9178;SDS011;4624;48.126;11.546;2023-04-03T00:09:21;4.30;;;3.90;;
9178;SDS011;4624;48.126;11.546;2023-04-03T00:11:48;4.20;;;3.63;;
9178;SDS011;4624;48.126;11.546;2023-04-03T00:14:15;4.33;;;3.90;;
9178;SDS011;4624;48.126;11.546;2023-04-03T00:16:42;3.63;;;3.33;;
9178;SDS011;4624;48.126;11.546;2023-04-03T00:19:08;5.07;;;3.90;;
9178;SDS011;4624;48.126;11.546;2023-04-03T00:21:38;4.30;;;3.90;;
9178;SDS011;4624;48.126;11.546;2023-04-03T00:24:05;5.77;;;3.93;;
9178;SDS011;4624;48.126;11.546;2023-04-03T00:26:32;3.93;;;3.63;;
9178;SDS011;4624;48.126;11.546;2023-04-03T00:28:58;4.17;;;3.77;;
9178;SDS011;4624;48.126;11.546;2023-04-03T00:31:25;4.00;;;3.60;;
9178;SDS011;4624;48.126;11.546;2023-04-03T00:33:52;4.10;;;3.70;;
9178;SDS011;4624;48.126;11.546;2023-04-03T00:36:19;4.53;;;3.70;;
9178;SDS011;4624;48.126;11.546;2023-04-03T00:38:47;4.60;;;3.80;;
9178;SDS011;4624;48.126;11.546;2023-04-03T00:41:13;5.03;;;3.80;;
9178;SDS011;4624;48.126;11.546;2023-04-03T00:43:40;4.30;;;3.43;;
9178;SDS011;4624;48.126;11.546;2023-04-03T00:46:07;4.27;;;3.60;;
9178;SDS011;4624;48.126;11.546;2023-04-03T00:48:35;3.60;;;3.30;;
9178;SDS011;4624;48.126;11.546;2023-04-03T00:51:06;4.20;;;3.47;;
9178;SDS011;4624;48.126;11.546;2023-04-03T00:53:37;5.73;;;3.53;;
9178;SDS011;4624;48.126;11.546;2023-04-03T00:56:08;3.07;;;2.87;;
9178;SDS011;4624;48.126;11.546;2023-04-03T00:58:38;3.70;;;3.40;;
9178;SDS011;4624;48.126;11.546;2023-04-03T01:01:08;3.63;;;3.30;;
9178;SDS011;4624;48.126;11.546;2023-04-03T01:03:40;3.93;;;3.60;;
9178;SDS011;4624;48.126;11.546;2023-04-03T01:06:07;4.50;;;3.83;;
9178;SDS011;4624;48.126;11.546;2023-04-03T01:08:33;3.67;;;3.37;;
9178;SDS011;4624;48.126;11.546;2023-04-03T01:11:01;3.50;;;3.20;;
9178;SDS011;4624;48.126;11.546;2023-04-03T01:13:30;3.87;;;3.20;;
9178;SDS011;4624;48.126;11.546;2023-04-03T01:16:00;4.10;;;3.50;;
9178;SDS011;4624;48.126;11.546;2023-04-03T01:18:28;3.40;;;3.13;;
9178;SDS011;4624;48.126;11.546;2023-04-03T01:21:09;3.33;;;3.03;;
9178;SDS011;4624;48.126;11.546;2023-04-03T01:24:07;4.10;;;3.00;;
9178;SDS011;4624;48.126;11.546;2023-04-03T01:26:53;3.90;;;3.40;;
9178;SDS011;4624;48.126;11.546;2023-04-03T01:29:22;3.33;;;2.93;;
9178;SDS011;4624;48.126;11.546;2023-04-03T01:31:51;4.17;;;3.73;;
9178;SDS011;4624;48.126;11.546;2023-04-03T01:34:20;4.33;;;3.60;;
9178;SDS011;4624;48.126;11.546;2023-04-03T01:36:48;3.80;;;3.50;;
9178;SDS011;4624;48.126;11.546;2023-04-03T01:39:15;3.60;;;3.30;;
9178;SDS011;4624;48.126;11.546;2023-04-03T01:41:42;3.70;;;3.33;;
9178;SDS011;4624;48.126;11.546;2023-04-03T01:44:10;4.43;;;3.60;;
9178;SDS011;4624;48.126;11.546;2023-04-03T01:46:36;4.27;;;3.87;;
9178;SDS011;4624;48.126;11.546;2023-04-03T01:49:05;4.00;;;3.70;;
9178;SDS011;4624;48.126;11.546;2023-04-03T01:51:31;6.37;;;3.73;;
9178;SDS011;4624;48.126;11.546;2023-04-03T01:53:59;3.27;;;2.97;;
9178;SDS011;4624;48.126;11.546;2023-04-03T01:56:26;3.93;;;3.13;;
9178;SDS011;4624;48.126;11.546;2023-04-03T01:58:52;4.33;;;3.20;;
9178;SDS011;4624;48.126;11.546;2023-04-03T02:01:19;3.80;;;3.50;;
9178;SDS011;4624;48.126;11.546;2023-04-03T02:03:46;3.83;;;3.53;;
9178;SDS011;4624;48.126;11.546;2023-04-03T02:06:14;3.80;;;3.30;;
9178;SDS011;4624;48.126;11.546;2023-04-03T02:08:41;3.40;;;3.10;;
9178;SDS011;4624;48.126;11.546;2023-04-03T02:11:08;3.97;;;3.63;;
9178;SDS011;4624;48.126;11.546;2023-04-03T02:13:35;3.23;;;3.00;;
9178;SDS011;4624;48.126;11.546;2023-04-03T02:16:05;3.73;;;3.20;;
9178;SDS011;4624;48.126;11.546;2023-04-03T02:18:33;4.73;;;3.17;;
9178;SDS011;4624;48.126;11.546;2023-04-03T02:21:00;3.90;;;3.13;;
9178;SDS011;4624;48.126;11.546;2023-04-03T02:23:28;3.47;;;3.17;;
9178;SDS011;4624;48.126;11.546;2023-04-03T02:26:01;2.97;;;2.70;;
9178;SDS011;4624;48.126;11.546;2023-04-03T02:28:30;2.70;;;2.47;;
9178;SDS011;4624;48.126;11.546;2023-04-03T02:30:57;4.13;;;3.20;;
9178;SDS011;4624;48.126;11.546;2023-04-03T02:33:23;3.23;;;2.90;;
9178;SDS011;4624;48.126;11.546;2023-04-03T02:35:52;2.80;;;2.50;;
9178;SDS011;4624;48.126;11.546;2023-04-03T02:38:19;3.23;;;2.43;;
9178;SDS011;4624;48.126;11.546;2023-04-03T02:40:47;4.07;;;2.77;;
9178;SDS011;4624;48.126;11.546;2023-04-03T02:43:14;2.67;;;2.47;;
9178;SDS011;4624;48.126;11.546;2023-04-03T02:45:41;3.53;;;2.50;;
9178;SDS011;4624;48.126;11.546;2023-04-03T02:48:08;2.87;;;2.67;;
9178;SDS011;4624;48.126;11.546;2023-04-03T02:50:35;2.93;;;2.73;;
9178;SDS011;4624;48.126;11.546;2023-04-03T02:53:01;3.13;;;2.67;;
9178;SDS011;4624;48.126;11.546;2023-04-03T02:55:28;2.60;;;2.37;;
9178;SDS011;4624;48.126;11.546;2023-04-03T02:57:56;3.13;;;2.83;;
9178;SDS011;4624;48.126;11.546;2023-04-03T03:00:23;2.60;;;2.03;;
9178;SDS011;4624;48.126;11.546;2023-04-03T03:02:50;3.23;;;2.10;;
9178;SDS011;4624;48.126;11.546;2023-04-03T03:05:16;3.07;;;2.57;;
9178;SDS011;4624;48.126;11.546;2023-04-03T03:07:43;2.70;;;2.50;;
9178;SDS011;4624;48.126;11.546;2023-04-03T03:10:10;1.87;;;1.70;;
9178;SDS011;4624;48.126;11.546;2023-04-03T03:12:37;2.10;;;1.90;;
9178;SDS011;4624;48.126;11.546;2023-04-03T03:15:05;2.50;;;2.20;;
9178;SDS011;4624;48.126;11.546;2023-04-03T03:17:33;1.93;;;1.70;;
9178;SDS011;4624;48.126;11.546;2023-04-03T03:20:01;4.13;;;2.40;;
9178;SDS011;4624;48.126;11.546;2023-04-03T03:22:28;3.17;;;2.40;;
9178;SDS011;4624;48.126;11.546;2023-04-03T03:24:55;2.23;;;1.83;;
9178;SDS011;4624;48.126;11.546;2023-04-03T03:27:21;3.20;;;1.90;;
9178;SDS011;4624;48.126;11.546;2023-04-03T03:29:49;3.53;;;2.10;;
9178;SDS011;4624;48.126;11.546;2023-04-03T03:32:17;3.67;;;2.00;;
9178;SDS011;4624;48.126;11.546;2023-04-03T03:34:44;2.90;;;2.17;;
9178;SDS011;4624;48.126;11.546;2023-04-03T03:37:10;2.17;;;1.97;;
9178;SDS011;4624;48.126;11.546;2023-04-03T03:39:37;2.23;;;2.03;;
9178;SDS011;4624;48.126;11.546;2023-04-03T03:42:04;2.00;;;1.80;;
9178;SDS011;4624;48.126;11.546;2023-04-03T03:44:31;2.20;;;2.00;;
9178;SDS011;4624;48.126;11.546;2023-04-03T03:46:57;2.00;;;1.80;;
9178;SDS011;4624;48.126;11.546;2023-04-03T03:49:26;2.73;;;1.70;;
9178;SDS011;4624;48.126;11.546;2023-04-03T03:51:52;1.90;;;1.73;;
9178;SDS011;4624;48.126;11.546;2023-04-03T03:54:20;2.00;;;1.77;;
9178;SDS011;4624;48.126;11.546;2023-04-03T03:56:46;2.00;;;1.80;;
9178;SDS011;4624;48.126;11.546;2023-04-03T03:59:13;2.20;;;2.00;;
9178;SDS011;4624;48.126;11.546;2023-04-03T04:01:41;3.53;;;1.87;;
9178;SDS011;4624;48.126;11.546;2023-04-03T04:04:08;1.80;;;1.70;;
9178;SDS011;4624;48.126;11.546;2023-04-03T04:06:36;1.80;;;1.70;;
9178;SDS011;4624;48.126;11.546;2023-04-03T04:09:03;2.43;;;1.93;;
9178;SDS011;4624;48.126;11.546;2023-04-03T04:11:29;1.93;;;1.73;;
9178;SDS011;4624;48.126;11.546;2023-04-03T04:13:58;2.80;;;1.83;;
9178;SDS011;4624;48.126;11.546;2023-04-03T04:16:25;1.77;;;1.40;;
9178;SDS011;4624;48.126;11.546;2023-04-03T04:18:51;2.07;;;1.87;;
9178;SDS011;4624;48.126;11.546;2023-04-03T04:21:18;1.50;;;1.40;;
9178;SDS011;4624;48.126;11.546;2023-04-03T04:23:46;2.17;;;1.80;;
9178;SDS011;4624;48.126;11.546;2023-04-03T04:26:13;1.73;;;1.50;;
9178;SDS011;4624;48.126;11.546;2023-04-03T04:28:40;3.40;;;1.50;;
9178;SDS011;4624;48.126;11.546;2023-04-03T04:31:07;2.10;;;1.90;;
9178;SDS011;4624;48.126;11.546;2023-04-03T04:33:33;2.13;;;1.93;;
9178;SDS011;4624;48.126;11.546;2023-04-03T04:36:00;2.53;;;2.00;;
9178;SDS011;4624;48.126;11.546;2023-04-03T04:38:27;1.90;;;1.80;;
9178;SDS011;4624;48.126;11.546;2023-04-03T04:40:55;1.97;;;1.87;;
9178;SDS011;4624;48.126;11.546;2023-04-03T04:43:22;4.90;;;1.90;;
9178;SDS011;4624;48.126;11.546;2023-04-03T04:45:59;2.07;;;1.70;;
9178;SDS011;4624;48.126;11.546;2023-04-03T04:48:27;1.93;;;1.73;;
9178;SDS011;4624;48.126;11.546;2023-04-03T04:50:53;4.20;;;2.20;;
9178;SDS011;4624;48.126;11.546;2023-04-03T04:53:20;2.60;;;1.77;;
9178;SDS011;4624;48.126;11.546;2023-04-03T04:55:47;3.83;;;1.80;;
9178;SDS011;4624;48.126;11.546;2023-04-03T04:58:15;2.10;;;1.83;;
9178;SDS011;4624;48.126;11.546;2023-04-03T05:00:42;2.23;;;1.90;;
9178;SDS011;4624;48.126;11.546;2023-04-03T05:03:09;2.13;;;1.70;;
9178;SDS011;4624;48.126;11.546;2023-04-03T05:05:35;2.60;;;1.97;;
9178;SDS011;4624;48.126;11.546;2023-04-03T05:08:02;1.73;;;1.63;;
9178;SDS011;4624;48.126;11.546;2023-04-03T05:10:29;3.07;;;2.03;;
9178;SDS011;4624;48.126;11.546;2023-04-03T05:12:56;2.10;;;1.80;;
9178;SDS011;4624;48.126;11.546;2023-04-03T05:15:25;1.80;;;1.70;;
9178;SDS011;4624;48.126;11.546;2023-04-03T05:17:52;3.13;;;2.20;;
9178;SDS011;4624;48.126;11.546;2023-04-03T05:20:18;2.13;;;1.93;;
9178;SDS011;4624;48.126;11.546;2023-04-03T05:22:45;2.37;;;2.07;;
9178;SDS011;4624;48.126;11.546;2023-04-03T05:25:12;3.93;;;1.70;;
9178;SDS011;4624;48.126;11.546;2023-04-03T05:27:39;1.43;;;1.33;;
9178;SDS011;4624;48.126;11.546;2023-04-03T05:30:06;1.67;;;1.40;;
9178;SDS011;4624;48.126;11.546;2023-04-03T05:32:35;2.33;;;1.60;;
9178;SDS011;4624;48.126;11.546;2023-04-03T05:35:01;2.93;;;1.70;;
9178;SDS011;4624;48.126;11.546;2023-04-03T05:37:28;3.43;;;2.20;;
9178;SDS011;4624;48.126;11.546;2023-04-03T05:39:55;2.40;;;2.13;;
9178;SDS011;4624;48.126;11.546;2023-04-03T05:42:22;3.23;;;1.90;;
9178;SDS011;4624;48.126;11.546;2023-04-03T05:44:48;2.93;;;2.20;;
9178;SDS011;4624;48.126;11.546;2023-04-03T05:47:15;3.07;;;2.03;;
9178;SDS011;4624;48.126;11.546;2023-04-03T05:49:43;2.80;;;2.10;;
9178;SDS011;4624;48.126;11.546;2023-04-03T05:52:11;1.80;;;1.70;;
9178;SDS011;4624;48.126;11.546;2023-04-03T05:54:47;4.27;;;2.10;;
9178;SDS011;4624;48.126;11.546;2023-04-03T05:57:13;3.23;;;1.90;;
9178;SDS011;4624;48.126;11.546;2023-04-03T05:59:41;3.60;;;1.70;;
9178;SDS011;4624;48.126;11.546;2023-04-03T06:02:08;1.60;;;1.50;;
9178;SDS011;4624;48.126;11.546;2023-04-03T06:04:36;3.47;;;2.33;;
9178;SDS011;4624;48.126;11.546;2023-04-03T06:07:04;3.20;;;2.03;;
9178;SDS011;4624;48.126;11.546;2023-04-03T06:09:31;3.23;;;1.73;;
9178;SDS011;4624;48.126;11.546;2023-04-03T06:11:58;4.10;;;1.93;;
9178;SDS011;4624;48.126;11.546;2023-04-03T06:14:25;1.90;;;1.80;;
9178;SDS011;4624;48.126;11.546;2023-04-03T06:16:52;1.90;;;1.80;;
9178;SDS011;4624;48.126;11.546;2023-04-03T06:19:20;2.43;;;2.23;;
9178;SDS011;4624;48.126;11.546;2023-04-03T06:21:47;2.30;;;2.10;;
9178;SDS011;4624;48.126;11.546;2023-04-03T06:24:16;3.40;;;2.67;;
9178;SDS011;4624;48.126;11.546;2023-04-03T06:26:45;6.73;;;2.87;;
9178;SDS011;4624;48.126;11.546;2023-04-03T06:29:11;4.23;;;1.83;;
9178;SDS011;4624;48.126;11.546;2023-04-03T06:31:38;4.53;;;2.60;;
9178;SDS011;4624;48.126;11.546;2023-04-03T06:34:05;2.60;;;2.30;;
9178;SDS011;4624;48.126;11.546;2023-04-03T06:36:32;2.10;;;1.90;;
9178;SDS011;4624;48.126;11.546;2023-04-03T06:38:59;3.13;;;1.90;;
9178;SDS011;4624;48.126;11.546;2023-04-03T06:41:27;2.53;;;2.30;;
9178;SDS011;4624;48.126;11.546;2023-04-03T06:43:55;3.17;;;2.03;;
9178;SDS011;4624;48.126;11.546;2023-04-03T06:46:23;3.07;;;2.07;;
9178;SDS011;4624;48.126;11.546;2023-04-03T06:48:51;2.90;;;2.10;;
9178;SDS011;4624;48.126;11.546;2023-04-03T06:51:19;2.73;;;2.10;;
9178;SDS011;4624;48.126;11.546;2023-04-03T06:53:47;2.73;;;2.00;;
9178;SDS011;4624;48.126;11.546;2023-04-03T06:56:15;2.97;;;2.07;;
9178;SDS011;4624;48.126;11.546;2023-04-03T06:58:43;3.37;;;2.07;;
9178;SDS011;4624;48.126;11.546;2023-04-03T07:01:12;2.43;;;1.90;;
9178;SDS011;4624;48.126;11.546;2023-04-03T07:03:40;2.10;;;1.90;;
9178;SDS011;4624;48.126;11.546;2023-04-03T07:06:09;4.80;;;2.40;;
9178;SDS011;4624;48.126;11.546;2023-04-03T07:08:37;3.87;;;2.40;;
9178;SDS011;4624;48.126;11.546;2023-04-03T07:11:05;3.53;;;1.97;;
9178;SDS011;4624;48.126;11.546;2023-04-03T07:13:32;2.33;;;2.07;;
9178;SDS011;4624;48.126;11.546;2023-04-03T07:16:00;3.83;;;2.10;;
9178;SDS011;4624;48.126;11.546;2023-04-03T07:18:28;3.30;;;2.10;;
9178;SDS011;4624;48.126;11.546;2023-04-03T07:20:55;9.53;;;1.90;;
9178;SDS011;4624;48.126;11.546;2023-04-03T07:23:22;8.73;;;2.43;;
9178;SDS011;4624;48.126;11.546;2023-04-03T07:25:50;4.53;;;2.83;;
9178;SDS011;4624;48.126;11.546;2023-04-03T07:28:17;5.43;;;2.13;;
9178;SDS011;4624;48.126;11.546;2023-04-03T07:30:45;2.57;;;2.00;;
9178;SDS011;4624;48.126;11.546;2023-04-03T07:33:16;6.40;;;2.23;;
9178;SDS011;4624;48.126;11.546;2023-04-03T07:35:46;3.13;;;2.00;;
9178;SDS011;4624;48.126;11.546;2023-04-03T07:38:13;2.93;;;2.60;;
9178;SDS011;4624;48.126;11.546;2023-04-03T07:40:41;4.57;;;2.20;;
9178;SDS011;4624;48.126;11.546;2023-04-03T07:43:12;3.77;;;1.90;;
9178;SDS011;4624;48.126;11.546;2023-04-03T07:45:39;4.23;;;2.10;;
9178;SDS011;4624;48.126;11.546;2023-04-03T07:48:06;5.00;;;2.17;;
9178;SDS011;4624;48.126;11.546;2023-04-03T07:50:34;3.13;;;2.13;;
9178;SDS011;4624;48.126;11.546;2023-04-03T07:53:01;4.33;;;2.40;;
9178;SDS011;4624;48.126;11.546;2023-04-03T07:55:28;3.40;;;2.07;;
9178;SDS011;4624;48.126;11.546;2023-04-03T07:57:55;4.03;;;2.70;;
9178;SDS011;4624;48.126;11.546;2023-04-03T08:00:21;2.97;;;2.47;;
9178;SDS011;4624;48.126;11.546;2023-04-03T08:02:48;4.83;;;2.77;;
9178;SDS011;4624;48.126;11.546;2023-04-03T08:05:16;4.20;;;2.43;;
9178;SDS011;4624;48.126;11.546;2023-04-03T08:07:45;3.03;;;2.27;;
9178;SDS011;4624;48.126;11.546;2023-04-03T08:10:11;3.37;;;2.90;;
9178;SDS011;4624;48.126;11.546;2023-04-03T08:12:39;4.70;;;3.20;;
9178;SDS011;4624;48.126;11.546;2023-04-03T08:15:06;3.20;;;2.33;;
9178;SDS011;4624;48.126;11.546;2023-04-03T08:17:34;4.77;;;3.30;;
9178;SDS011;4624;48.126;11.546;2023-04-03T08:20:01;4.43;;;3.20;;
9178;SDS011;4624;48.126;11.546;2023-04-03T08:22:29;4.03;;;2.67;;
9178;SDS011;4624;48.126;11.546;2023-04-03T08:24:58;5.03;;;3.30;;
9178;SDS011;4624;48.126;11.546;2023-04-03T08:27:25;4.87;;;2.80;;
9178;SDS011;4624;48.126;11.546;2023-04-03T08:29:52;3.53;;;3.23;;
9178;SDS011;4624;48.126;11.546;2023-04-03T08:32:19;4.33;;;3.63;;
9178;SDS011;4624;48.126;11.546;2023-04-03T08:34:46;3.37;;;2.93;;
9178;SDS011;4624;48.126;11.546;2023-04-03T08:37:13;4.63;;;3.10;;
9178;SDS011;4624;48.126;11.546;2023-04-03T08:39:41;6.10;;;3.60;;
9178;SDS011;4624;48.126;11.546;2023-04-03T08:42:13;5.20;;;2.87;;
9178;SDS011;4624;48.126;11.546;2023-04-03T08:44:46;3.13;;;2.70;;
9178;SDS011;4624;48.126;11.546;2023-04-03T08:47:20;3.87;;;3.07;;
9178;SDS011;4624;48.126;11.546;2023-04-03T08:49:51;3.67;;;3.13;;
9178;SDS011;4624;48.126;11.546;2023-04-03T08:52:22;3.27;;;2.67;;
9178;SDS011;4624;48.126;11.546;2023-04-03T08:54:55;5.13;;;2.70;;
9178;SDS011;4624;48.126;11.546;2023-04-03T08:57:28;2.77;;;2.57;;
9178;SDS011;4624;48.126;11.546;2023-04-03T08:59:57;2.80;;;2.60;;
9178;SDS011;4624;48.126;11.546;2023-04-03T09:02:28;4.03;;;2.73;;
9178;SDS011;4624;48.126;11.546;2023-04-03T09:04:59;4.40;;;3.20;;
9178;SDS011;4624;48.126;11.546;2023-04-03T09:07:31;2.67;;;2.43;;
9178;SDS011;4624;48.126;11.546;2023-04-03T09:10:03;2.97;;;2.63;;
9178;SDS011;4624;48.126;11.546;2023-04-03T09:12:33;2.33;;;2.13;;
9178;SDS011;4624;48.126;11.546;2023-04-03T09:15:06;2.60;;;2.40;;
9178;SDS011;4624;48.126;11.546;2023-04-03T09:17:42;4.47;;;3.00;;
9178;SDS011;4624;48.126;11.546;2023-04-03T09:20:19;2.57;;;2.17;;
9178;SDS011;4624;48.126;11.546;2023-04-03T09:22:51;2.77;;;2.37;;
9178;SDS011;4624;48.126;11.546;2023-04-03T09:25:20;8.63;;;2.77;;
9178;SDS011;4624;48.126;11.546;2023-04-03T09:27:49;4.07;;;2.53;;
9178;SDS011;4624;48.126;11.546;2023-04-03T09:30:18;3.90;;;2.90;;
9178;SDS011;4624;48.126;11.546;2023-04-03T09:32:46;2.70;;;2.50;;
9178;SDS011;4624;48.126;11.546;2023-04-03T09:35:16;4.83;;;2.67;;
9178;SDS011;4624;48.126;11.546;2023-04-03T09:37:48;2.60;;;2.40;;
9178;SDS011;4624;48.126;11.546;2023-04-03T09:43:02;2.57;;;2.20;;
9178;SDS011;4624;48.126;11.546;2023-04-03T09:45:45;2.57;;;2.30;;
9178;SDS011;4624;48.126;11.546;2023-04-03T09:48:15;2.23;;;2.00;;
9178;SDS011;4624;48.126;11.546;2023-04-03T09:50:54;5.53;;;2.30;;
9178;SDS011;4624;48.126;11.546;2023-04-03T09:53:31;3.17;;;2.33;;
9178;SDS011;4624;48.126;11.546;2023-04-03T09:56:00;3.23;;;2.73;;
9178;SDS011;4624;48.126;11.546;2023-04-03T09:58:30;2.83;;;2.00;;
9178;SDS011;4624;48.126;11.546;2023-04-03T10:00:59;3.00;;;2.23;;
9178;SDS011;4624;48.126;11.546;2023-04-03T10:03:28;2.23;;;1.93;;
9178;SDS011;4624;48.126;11.546;2023-04-03T10:05:56;4.43;;;2.27;;
9178;SDS011;4624;48.126;11.546;2023-04-03T10:08:25;3.33;;;2.00;;
9178;SDS011;4624;48.126;11.546;2023-04-03T10:11:11;2.27;;;1.80;;
9178;SDS011;4624;48.126;11.546;2023-04-03T10:13:50;2.60;;;1.50;;
9178;SDS011;4624;48.126;11.546;2023-04-03T10:16:19;1.67;;;1.57;;
9178;SDS011;4624;48.126;11.546;2023-04-03T10:18:54;2.13;;;1.93;;
9178;SDS011;4624;48.126;11.546;2023-04-03T10:21:31;2.50;;;2.30;;
9178;SDS011;4624;48.126;11.546;2023-04-03T10:24:04;10.73;;;6.50;;
9178;SDS011;4624;48.126;11.546;2023-04-03T10:26:39;5.87;;;3.00;;
9178;SDS011;4624;48.126;11.546;2023-04-03T10:29:15;3.30;;;2.30;;
9178;SDS011;4624;48.126;11.546;2023-04-03T10:31:49;2.07;;;1.93;;
9178;SDS011;4624;48.126;11.546;2023-04-03T10:34:22;2.60;;;2.37;;
9178;SDS011;4624;48.126;11.546;2023-04-03T10:36:53;2.50;;;2.30;;
9178;SDS011;4624;48.126;11.546;2023-04-03T10:39:27;4.47;;;2.27;;
9178;SDS011;4624;48.126;11.546;2023-04-03T10:42:02;2.80;;;2.40;;
9178;SDS011;4624;48.126;11.546;2023-04-03T10:44:39;3.57;;;2.20;;
9178;SDS011;4624;48.126;11.546;2023-04-03T10:47:19;2.60;;;2.30;;
9178;SDS011;4624;48.126;11.546;2023-04-03T10:49:50;3.30;;;2.27;;
9178;SDS011;4624;48.126;11.546;2023-04-03T10:52:27;2.97;;;2.20;;
9178;SDS011;4624;48.126;11.546;2023-04-03T10:55:04;2.27;;;1.63;;
9178;SDS011;4624;48.126;11.546;2023-04-03T10:57:52;2.77;;;1.93;;
9178;SDS011;4624;48.126;11.546;2023-04-03T11:00:25;2.27;;;2.03;;
9178;SDS011;4624;48.126;11.546;2023-04-03T11:02:57;3.27;;;2.20;;
9178;SDS011;4624;48.126;11.546;2023-04-03T11:05:28;3.03;;;1.80;;
9178;SDS011;4624;48.126;11.546;2023-04-03T11:07:59;2.17;;;1.70;;
9178;SDS011;4624;48.126;11.546;2023-04-03T11:10:35;2.10;;;1.90;;
9178;SDS011;4624;48.126;11.546;2023-04-03T11:13:07;3.10;;;2.07;;
9178;SDS011;4624;48.126;11.546;2023-04-03T11:15:40;2.73;;;1.90;;
9178;SDS011;4624;48.126;11.546;2023-04-03T11:18:08;5.40;;;2.63;;
9178;SDS011;4624;48.126;11.546;2023-04-03T11:20:40;2.83;;;1.87;;
9178;SDS011;4624;48.126;11.546;2023-04-03T11:23:12;5.90;;;2.20;;
9178;SDS011;4624;48.126;11.546;2023-04-03T11:25:45;2.33;;;1.90;;
9178;SDS011;4624;48.126;11.546;2023-04-03T11:28:16;2.13;;;1.70;;
9178;SDS011;4624;48.126;11.546;2023-04-03T11:30:45;2.40;;;1.80;;
9178;SDS011;4624;48.126;11.546;2023-04-03T11:33:21;2.70;;;1.63;;
9178;SDS011;4624;48.126;11.546;2023-04-03T11:35:55;3.07;;;2.50;;
9178;SDS011;4624;48.126;11.546;2023-04-03T11:38:26;2.83;;;2.00;;
9178;SDS011;4624;48.126;11.546;2023-04-03T11:40:56;3.50;;;1.90;;
9178;SDS011;4624;48.126;11.546;2023-04-03T11:43:25;1.90;;;1.57;;
9178;SDS011;4624;48.126;11.546;2023-04-03T11:45:56;2.07;;;1.50;;
9178;SDS011;4624;48.126;11.546;2023-04-03T12:12:30;2.07;;;1.30;;
9178;SDS011;4624;48.126;11.546;2023-04-03T12:15:12;2.07;;;1.10;;
9178;SDS011;4624;48.126;11.546;2023-04-03T12:18:12;2.27;;;1.17;;
9178;SDS011;4624;48.126;11.546;2023-04-03T12:20:58;2.50;;;1.40;;
9178;SDS011;4624;48.126;11.546;2023-04-03T12:23:29;1.83;;;1.00;;
9178;SDS011;4624;48.126;11.546;2023-04-03T12:26:02;1.93;;;1.10;;
9178;SDS011;4624;48.126;11.546;2023-04-03T12:28:48;3.30;;;1.50;;
9178;SDS011;4624;48.126;11.546;2023-04-03T12:31:17;1.63;;;1.10;;
9178;SDS011;4624;48.126;11.546;2023-04-03T12:34:00;1.20;;;1.10;;
9178;SDS011;4624;48.126;11.546;2023-04-03T12:36:38;1.63;;;1.10;;
9178;SDS011;4624;48.126;11.546;2023-04-03T12:39:17;1.67;;;1.10;;
9178;SDS011;4624;48.126;11.546;2023-04-03T12:42:16;0.90;;;0.90;;
9178;SDS011;4624;48.126;11.546;2023-04-03T12:44:55;4.20;;;1.07;;
9178;SDS011;4624;48.126;11.546;2023-04-03T12:47:28;1.10;;;1.00;;
9178;SDS011;4624;48.126;11.546;2023-04-03T12:49:58;1.40;;;1.10;;
9178;SDS011;4624;48.126;11.546;2023-04-03T12:52:32;1.87;;;1.40;;
9178;SDS011;4624;48.126;11.546;2023-04-03T12:55:03;1.53;;;1.13;;
9178;SDS011;4624;48.126;11.546;2023-04-03T12:57:40;2.80;;;1.23;;
9178;SDS011;4624;48.126;11.546;2023-04-03T13:02:55;2.40;;;1.20;;
9178;SDS011;4624;48.126;11.546;2023-04-03T13:05:22;3.10;;;1.03;;
9178;SDS011;4624;48.126;11.546;2023-04-03T13:07:52;0.83;;;0.70;;
9178;SDS011;4624;48.126;11.546;2023-04-03T13:10:23;2.50;;;1.10;;
9178;SDS011;4624;48.126;11.546;2023-04-03T13:12:51;3.80;;;0.80;;
9178;SDS011;4624;48.126;11.546;2023-04-03T13:15:20;1.53;;;1.00;;
9178;SDS011;4624;48.126;11.546;2023-04-03T13:17:51;1.83;;;1.20;;
9178;SDS011;4624;48.126;11.546;2023-04-03T13:20:20;1.90;;;1.20;;
9178;SDS011;4624;48.126;11.546;2023-04-03T13:22:50;1.27;;;1.10;;
9178;SDS011;4624;48.126;11.546;2023-04-03T13:25:27;1.73;;;1.00;;
9178;SDS011;4624;48.126;11.546;2023-04-03T13:27:56;0.77;;;0.77;;
9178;SDS011;4624;48.126;11.546;2023-04-03T13:30:27;2.33;;;0.83;;
9178;SDS011;4624;48.126;11.546;2023-04-03T13:32:56;3.63;;;0.90;;
9178;SDS011;4624;48.126;11.546;2023-04-03T13:35:29;1.40;;;1.00;;
9178;SDS011;4624;48.126;11.546;2023-04-03T13:38:00;1.00;;;0.70;;
9178;SDS011;4624;48.126;11.546;2023-04-03T13:40:28;0.77;;;0.70;;
9178;SDS011;4624;48.126;11.546;2023-04-03T13:42:59;1.30;;;0.60;;
9178;SDS011;4624;48.126;11.546;2023-04-03T13:45:27;2.03;;;1.07;;
9178;SDS011;4624;48.126;11.546;2023-04-03T13:48:08;3.57;;;1.00;;
9178;SDS011;4624;48.126;11.546;2023-04-03T13:50:51;1.67;;;0.77;;
9178;SDS011;4624;48.126;11.546;2023-04-03T13:53:21;1.43;;;1.17;;
9178;SDS011;4624;48.126;11.546;2023-04-03T13:55:58;1.00;;;0.80;;
9178;SDS011;4624;48.126;11.546;2023-04-03T13:58:36;1.10;;;1.00;;
9178;SDS011;4624;48.126;11.546;2023-04-03T14:01:08;1.53;;;0.83;;
9178;SDS011;4624;48.126;11.546;2023-04-03T14:03:42;2.70;;;0.80;;
9178;SDS011;4624;48.126;11.546;2023-04-03T14:06:10;1.33;;;0.90;;
9178;SDS011;4624;48.126;11.546;2023-04-03T14:08:39;1.20;;;1.10;;
9178;SDS011;4624;48.126;11.546;2023-04-03T14:11:08;3.13;;;1.10;;
9178;SDS011;4624;48.126;11.546;2023-04-03T14:13:41;1.10;;;0.70;;
9178;SDS011;4624;48.126;11.546;2023-04-03T14:16:11;1.07;;;0.80;;
9178;SDS011;4624;48.126;11.546;2023-04-03T14:18:41;1.37;;;0.80;;
9178;SDS011;4624;48.126;11.546;2023-04-03T14:21:08;0.70;;;0.70;;
9178;SDS011;4624;48.126;11.546;2023-04-03T14:23:37;1.00;;;0.70;;
9178;SDS011;4624;48.126;11.546;2023-04-03T14:26:04;1.17;;;0.90;;
9178;SDS011;4624;48.126;11.546;2023-04-03T14:28:31;4.23;;;1.00;;
9178;SDS011;4624;48.126;11.546;2023-04-03T14:30:58;0.90;;;0.70;;
9178;SDS011;4624;48.126;11.546;2023-04-03T14:33:25;1.10;;;0.97;;
9178;SDS011;4624;48.126;11.546;2023-04-03T14:35:54;1.50;;;0.90;;
9178;SDS011;4624;48.126;11.546;2023-04-03T14:38:23;1.40;;;0.70;;
9178;SDS011;4624;48.126;11.546;2023-04-03T14:40:52;3.37;;;1.13;;
9178;SDS011;4624;48.126;11.546;2023-04-03T14:43:19;1.10;;;0.93;;
9178;SDS011;4624;48.126;11.546;2023-04-03T14:45:47;3.03;;;0.90;;
9178;SDS011;4624;48.126;11.546;2023-04-03T14:48:15;1.80;;;0.80;;
9178;SDS011;4624;48.126;11.546;2023-04-03T14:50:44;1.43;;;1.20;;
9178;SDS011;4624;48.126;11.546;2023-04-03T14:53:13;1.93;;;0.90;;
9178;SDS011;4624;48.126;11.546;2023-04-03T14:55:41;1.50;;;1.03;;
9178;SDS011;4624;48.126;11.546;2023-04-03T14:58:11;1.40;;;0.70;;
9178;SDS011;4624;48.126;11.546;2023-04-03T15:00:40;1.43;;;1.20;;
9178;SDS011;4624;48.126;11.546;2023-04-03T15:03:09;1.10;;;1.07;;
9178;SDS011;4624;48.126;11.546;2023-04-03T15:05:40;1.80;;;1.10;;
9178;SDS011;4624;48.126;11.546;2023-04-03T15:08:08;1.30;;;1.20;;
9178;SDS011;4624;48.126;11.546;2023-04-03T15:10:45;2.13;;;0.93;;
9178;SDS011;4624;48.126;11.546;2023-04-03T15:13:12;2.10;;;0.80;;
9178;SDS011;4624;48.126;11.546;2023-04-03T15:15:39;1.00;;;0.70;;
9178;SDS011;4624;48.126;11.546;2023-04-03T15:18:06;1.07;;;0.53;;
9178;SDS011;4624;48.126;11.546;2023-04-03T15:20:36;1.70;;;0.67;;
9178;SDS011;4624;48.126;11.546;2023-04-03T15:23:03;1.10;;;0.60;;
9178;SDS011;4624;48.126;11.546;2023-04-03T15:25:32;0.83;;;0.80;;
9178;SDS011;4624;48.126;11.546;2023-04-03T15:27:59;1.70;;;0.90;;
9178;SDS011;4624;48.126;11.546;2023-04-03T15:30:26;0.80;;;0.63;;
9178;SDS011;4624;48.126;11.546;2023-04-03T15:32:53;1.13;;;0.67;;
9178;SDS011;4624;48.126;11.546;2023-04-03T15:35:20;2.57;;;0.60;;
9178;SDS011;4624;48.126;11.546;2023-04-03T15:37:47;1.00;;;0.50;;
9178;SDS011;4624;48.126;11.546;2023-04-03T15:40:14;1.47;;;0.90;;
9178;SDS011;4624;48.126;11.546;2023-04-03T15:42:42;0.73;;;0.50;;
9178;SDS011;4624;48.126;11.546;2023-04-03T15:45:09;2.60;;;0.90;;